sensor_id;sensor_type;location;lat;lon;timestamp;pressure;altitude;pressure_sealevel;temperature;humidity
69713;BME280;56980;51.826;4.424;2022-10-17T00:00:37;101639.94;;;16.37;77.95
69713;BME280;56980;51.826;4.424;2022-10-17T00:03:02;101657.75;;;16.41;78.57
69713;BME280;56980;51.826;4.424;2022-10-17T00:05:28;101652.56;;;16.43;78.39
69713;BME280;56980;51.826;4.424;2022-10-17T00:07:53;101650.16;;;16.36;78.29
69713;BME280;56980;51.826;4.424;2022-10-17T00:10:19;101638.47;;;16.36;78.60
69713;BME280;56980;51.826;4.424;2022-10-17T00:12:45;101640.44;;;16.35;78.47
69713;BME280;56980;51.826;4.424;2022-10-17T00:15:15;101633.00;;;16.36;78.58
69713;BME280;56980;51.826;4.424;2022-10-17T00:17:40;101624.03;;;16.26;78.81
69713;BME280;56980;51.826;4.424;2022-10-17T00:20:06;101627.34;;;16.30;78.56
69713;BME280;56980;51.826;4.424;2022-10-17T00:22:32;101632.81;;;16.39;78.85
69713;BME280;56980;51.826;4.424;2022-10-17T00:24:57;101635.72;;;16.36;79.00
69713;BME280;56980;51.826;4.424;2022-10-17T00:27:22;101624.91;;;16.32;79.03
69713;BME280;56980;51.826;4.424;2022-10-17T00:29:49;101626.91;;;16.32;78.90
69713;BME280;56980;51.826;4.424;2022-10-17T00:32:14;101621.28;;;16.26;79.21
69713;BME280;56980;51.826;4.424;2022-10-17T00:34:40;101623.25;;;16.25;79.42
69713;BME280;56980;51.826;4.424;2022-10-17T00:37:05;101635.56;;;16.30;79.11
69713;BME280;56980;51.826;4.424;2022-10-17T00:39:30;101627.38;;;16.21;79.08
69713;BME280;56980;51.826;4.424;2022-10-17T00:41:56;101631.91;;;16.24;79.56
69713;BME280;56980;51.826;4.424;2022-10-17T00:46:53;101593.94;;;15.99;79.34
69713;BME280;56980;51.826;4.424;2022-10-17T00:49:19;101634.19;;;16.16;79.56
69713;BME280;56980;51.826;4.424;2022-10-17T00:51:49;101632.22;;;16.17;79.81
69713;BME280;56980;51.826;4.424;2022-10-17T00:54:18;101639.66;;;16.16;79.55
69713;BME280;56980;51.826;4.424;2022-10-17T00:56:46;101615.50;;;16.06;79.62
69713;BME280;56980;51.826;4.424;2022-10-17T00:59:13;101615.50;;;16.06;80.16
69713;BME280;56980;51.826;4.424;2022-10-17T01:01:40;101609.44;;;16.02;79.71
69713;BME280;56980;51.826;4.424;2022-10-17T01:04:07;101615.50;;;16.06;79.83
69713;BME280;56980;51.826;4.424;2022-10-17T01:06:32;101604.59;;;16.06;79.56
69713;BME280;56980;51.826;4.424;2022-10-17T01:08:57;101613.09;;;16.08;79.87
69713;BME280;56980;51.826;4.424;2022-10-17T01:14:09;101594.56;;;16.03;80.32
69713;BME280;56980;51.826;4.424;2022-10-17T01:16:44;101599.28;;;16.02;80.26
69713;BME280;56980;51.826;4.424;2022-10-17T01:32:43;101619.63;;;16.01;80.48
69713;BME280;56980;51.826;4.424;2022-10-17T01:35:24;101624.03;;;15.99;80.68
69713;BME280;56980;51.826;4.424;2022-10-17T01:37:58;101625.53;;;16.00;80.88
69713;BME280;56980;51.826;4.424;2022-10-17T01:40:34;101612.19;;;16.02;80.95
69713;BME280;56980;51.826;4.424;2022-10-17T01:43:05;101592.13;;;15.96;80.92
69713;BME280;56980;51.826;4.424;2022-10-17T01:45:32;101596.06;;;16.04;81.02
69713;BME280;56980;51.826;4.424;2022-10-17T01:48:05;101574.66;;;15.93;81.30
69713;BME280;56980;51.826;4.424;2022-10-17T01:50:35;101589.25;;;15.99;80.90
69713;BME280;56980;51.826;4.424;2022-10-17T01:53:18;101585.28;;;16.00;81.25
69713;BME280;56980;51.826;4.424;2022-10-17T01:55:45;101573.00;;;15.96;81.09
69713;BME280;56980;51.826;4.424;2022-10-17T01:58:15;101564.50;;;15.94;81.28
69713;BME280;56980;51.826;4.424;2022-10-17T02:00:44;101560.41;;;15.89;81.28
69713;BME280;56980;51.826;4.424;2022-10-17T02:03:14;101578.16;;;16.03;81.18
69713;BME280;56980;51.826;4.424;2022-10-17T02:05:42;101569.34;;;15.99;81.17
69713;BME280;56980;51.826;4.424;2022-10-17T02:08:08;101571.78;;;16.06;81.39
69713;BME280;56980;51.826;4.424;2022-10-17T02:11:16;101580.75;;;16.06;81.15
69713;BME280;56980;51.826;4.424;2022-10-17T02:16:53;101560.25;;;16.02;81.29
69713;BME280;56980;51.826;4.424;2022-10-17T02:27:12;101585.91;;;16.04;81.98
69713;BME280;56980;51.826;4.424;2022-10-17T02:29:56;101558.72;;;16.01;81.83
69713;BME280;56980;51.826;4.424;2022-10-17T02:32:34;101575.41;;;16.12;82.27
69713;BME280;56980;51.826;4.424;2022-10-17T02:35:02;101555.97;;;16.10;81.94
69713;BME280;56980;51.826;4.424;2022-10-17T02:37:30;101564.34;;;16.15;81.78
69713;BME280;56980;51.826;4.424;2022-10-17T02:39:58;101567.97;;;16.12;82.20
69713;BME280;56980;51.826;4.424;2022-10-17T02:42:25;101580.56;;;16.19;82.19
69713;BME280;56980;51.826;4.424;2022-10-17T02:44:53;101586.19;;;16.24;82.53
69713;BME280;56980;51.826;4.424;2022-10-17T02:47:31;101582.41;;;16.22;82.49
69713;BME280;56980;51.826;4.424;2022-10-17T02:49:59;101578.75;;;16.25;82.77
69713;BME280;56980;51.826;4.424;2022-10-17T02:52:36;101588.91;;;16.34;82.83
69713;BME280;56980;51.826;4.424;2022-10-17T02:58:03;101585.72;;;16.35;82.50
69713;BME280;56980;51.826;4.424;2022-10-17T03:00:31;101583.00;;;16.35;82.67
69713;BME280;56980;51.826;4.424;2022-10-17T03:02:57;101592.09;;;16.41;83.23
69713;BME280;56980;51.826;4.424;2022-10-17T03:05:28;101593.91;;;16.44;82.88
69713;BME280;56980;51.826;4.424;2022-10-17T03:07:54;101582.81;;;16.39;82.62
69713;BME280;56980;51.826;4.424;2022-10-17T03:10:20;101586.91;;;16.43;83.00
69713;BME280;56980;51.826;4.424;2022-10-17T03:12:46;101579.63;;;16.40;82.94
69713;BME280;56980;51.826;4.424;2022-10-17T03:15:11;101591.47;;;16.37;83.70
69713;BME280;56980;51.826;4.424;2022-10-17T03:17:37;101592.53;;;16.49;83.83
69713;BME280;56980;51.826;4.424;2022-10-17T03:20:04;101603.94;;;16.56;83.35
69713;BME280;56980;51.826;4.424;2022-10-17T03:22:30;101586.31;;;16.48;83.63
69713;BME280;56980;51.826;4.424;2022-10-17T03:24:56;101588.72;;;16.46;83.94
69713;BME280;56980;51.826;4.424;2022-10-17T03:27:21;101591.47;;;16.55;83.56
69713;BME280;56980;51.826;4.424;2022-10-17T03:29:46;101594.19;;;16.55;83.64
69713;BME280;56980;51.826;4.424;2022-10-17T03:32:12;101602.22;;;16.59;83.46
69713;BME280;56980;51.826;4.424;2022-10-17T03:34:37;101588.72;;;16.55;83.21
69713;BME280;56980;51.826;4.424;2022-10-17T03:37:03;101604.66;;;16.57;83.18
69713;BME280;56980;51.826;4.424;2022-10-17T03:39:28;101597.22;;;16.57;83.48
69713;BME280;56980;51.826;4.424;2022-10-17T03:41:54;101594.19;;;16.55;83.15
69713;BME280;56980;51.826;4.424;2022-10-17T03:44:19;101603.31;;;16.52;83.18
69713;BME280;56980;51.826;4.424;2022-10-17T03:46:44;101605.75;;;16.50;83.31
69713;BME280;56980;51.826;4.424;2022-10-17T03:49:10;101610.63;;;16.46;83.44
69713;BME280;56980;51.826;4.424;2022-10-17T03:51:36;101622.78;;;16.54;83.09
69713;BME280;56980;51.826;4.424;2022-10-17T03:54:02;101626.13;;;16.49;83.17
69713;BME280;56980;51.826;4.424;2022-10-17T03:56:27;101607.88;;;16.37;83.29
69713;BME280;56980;51.826;4.424;2022-10-17T03:58:54;101616.56;;;16.36;83.29
69713;BME280;56980;51.826;4.424;2022-10-17T04:01:19;101606.53;;;16.33;83.40
69713;BME280;56980;51.826;4.424;2022-10-17T04:03:49;101598.03;;;16.12;83.13
69713;BME280;56980;51.826;4.424;2022-10-17T04:06:15;101611.09;;;16.17;83.58
69713;BME280;56980;51.826;4.424;2022-10-17T04:08:40;101597.75;;;16.01;83.66
69713;BME280;56980;51.826;4.424;2022-10-17T04:11:08;101621.91;;;16.21;83.04
69713;BME280;56980;51.826;4.424;2022-10-17T04:13:33;101617.06;;;16.16;83.10
69713;BME280;56980;51.826;4.424;2022-10-17T04:16:01;101633.16;;;16.14;82.87
69713;BME280;56980;51.826;4.424;2022-10-17T04:18:27;101626.91;;;16.13;82.45
69713;BME280;56980;51.826;4.424;2022-10-17T04:20:52;101616.75;;;16.14;82.71
69713;BME280;56980;51.826;4.424;2022-10-17T04:23:18;101622.34;;;16.10;82.92
69713;BME280;56980;51.826;4.424;2022-10-17T04:25:44;101626.16;;;16.13;82.76
69713;BME280;56980;51.826;4.424;2022-10-17T04:28:10;101617.50;;;16.05;82.75
69713;BME280;56980;51.826;4.424;2022-10-17T04:30:35;101635.88;;;16.14;82.63
69713;BME280;56980;51.826;4.424;2022-10-17T04:33:01;101604.28;;;15.95;83.59
69713;BME280;56980;51.826;4.424;2022-10-17T04:35:26;101626.47;;;16.15;83.13
69713;BME280;56980;51.826;4.424;2022-10-17T04:37:52;101628.28;;;16.00;82.98
69713;BME280;56980;51.826;4.424;2022-10-17T04:40:17;101624.34;;;16.01;82.63
69713;BME280;56980;51.826;4.424;2022-10-17T04:42:42;101628.13;;;16.03;82.78
69713;BME280;56980;51.826;4.424;2022-10-17T04:45:08;101630.41;;;16.05;82.65
69713;BME280;56980;51.826;4.424;2022-10-17T04:47:34;101631.63;;;15.95;82.92
69713;BME280;56980;51.826;4.424;2022-10-17T04:49:59;101643.78;;;16.03;82.91
69713;BME280;56980;51.826;4.424;2022-10-17T04:52:24;101629.81;;;16.01;82.97
69713;BME280;56980;51.826;4.424;2022-10-17T04:54:50;101624.78;;;15.99;82.90
69713;BME280;56980;51.826;4.424;2022-10-17T04:57:16;101635.28;;;16.01;82.88
69713;BME280;56980;51.826;4.424;2022-10-17T04:59:42;101624.63;;;15.94;82.80
69713;BME280;56980;51.826;4.424;2022-10-17T05:02:08;101636.16;;;15.98;83.35
69713;BME280;56980;51.826;4.424;2022-10-17T05:04:33;101628.28;;;16.00;83.07
69713;BME280;56980;51.826;4.424;2022-10-17T05:06:58;101654.84;;;16.17;83.12
69713;BME280;56980;51.826;4.424;2022-10-17T05:09:24;101644.69;;;16.09;84.32
69713;BME280;56980;51.826;4.424;2022-10-17T05:11:49;101631.03;;;16.09;84.01
69713;BME280;56980;51.826;4.424;2022-10-17T05:14:15;101640.59;;;16.22;83.77
69713;BME280;56980;51.826;4.424;2022-10-17T05:16:40;101640.44;;;16.26;84.17
69713;BME280;56980;51.826;4.424;2022-10-17T05:19:05;101642.53;;;16.31;84.06
69713;BME280;56980;51.826;4.424;2022-10-17T05:21:31;101651.97;;;16.39;83.98
69713;BME280;56980;51.826;4.424;2022-10-17T05:23:57;101646.19;;;16.37;83.84
69713;BME280;56980;51.826;4.424;2022-10-17T05:26:23;101644.06;;;16.41;83.87
69713;BME280;56980;51.826;4.424;2022-10-17T05:29:02;101649.50;;;16.50;83.88
69713;BME280;56980;51.826;4.424;2022-10-17T05:31:28;101637.06;;;16.40;84.05
69713;BME280;56980;51.826;4.424;2022-10-17T05:33:54;101626.13;;;16.31;84.56
69713;BME280;56980;51.826;4.424;2022-10-17T05:36:25;101640.13;;;16.42;84.48
69713;BME280;56980;51.826;4.424;2022-10-17T05:38:54;101593.16;;;16.16;84.44
69713;BME280;56980;51.826;4.424;2022-10-17T05:45:08;101640.41;;;16.53;84.94
69713;BME280;56980;51.826;4.424;2022-10-17T07:40:53;101906.56;;;17.30;89.77
69713;BME280;56980;51.826;4.424;2022-10-17T07:43:18;101871.25;;;17.23;89.43
69713;BME280;56980;51.826;4.424;2022-10-17T07:45:44;101891.63;;;17.50;88.80
69713;BME280;56980;51.826;4.424;2022-10-17T07:48:09;101876.06;;;17.47;87.87
69713;BME280;56980;51.826;4.424;2022-10-17T07:50:34;101900.91;;;17.70;87.79
69713;BME280;56980;51.826;4.424;2022-10-17T07:53:00;101901.31;;;17.60;88.63
69713;BME280;56980;51.826;4.424;2022-10-17T07:55:25;101900.13;;;17.52;88.63
69713;BME280;56980;51.826;4.424;2022-10-17T07:57:50;101912.94;;;17.36;89.95
69713;BME280;56980;51.826;4.424;2022-10-17T08:00:16;101927.56;;;17.61;89.15
69713;BME280;56980;51.826;4.424;2022-10-17T08:02:41;101928.75;;;17.41;90.10
69713;BME280;56980;51.826;4.424;2022-10-17T08:05:07;101942.91;;;17.49;89.86
69713;BME280;56980;51.826;4.424;2022-10-17T08:07:32;101906.97;;;17.56;89.09
69713;BME280;56980;51.826;4.424;2022-10-17T08:09:57;101893.00;;;17.63;88.91
69713;BME280;56980;51.826;4.424;2022-10-17T08:12:23;101921.31;;;17.69;88.10
69713;BME280;56980;51.826;4.424;2022-10-17T08:14:50;101912.91;;;17.73;87.83
69713;BME280;56980;51.826;4.424;2022-10-17T08:17:15;101901.03;;;17.67;87.22
69713;BME280;56980;51.826;4.424;2022-10-17T08:19:40;101911.22;;;17.75;87.34
69713;BME280;56980;51.826;4.424;2022-10-17T08:22:06;101898.88;;;17.80;87.53
69713;BME280;56980;51.826;4.424;2022-10-17T08:24:31;101875.16;;;17.68;87.91
69713;BME280;56980;51.826;4.424;2022-10-17T08:26:57;101889.41;;;17.90;87.67
69713;BME280;56980;51.826;4.424;2022-10-17T08:29:23;101871.63;;;17.76;87.90
69713;BME280;56980;51.826;4.424;2022-10-17T08:31:52;101866.53;;;17.93;86.72
69713;BME280;56980;51.826;4.424;2022-10-17T08:34:17;101866.41;;;17.88;87.00
69713;BME280;56980;51.826;4.424;2022-10-17T08:36:43;101873.22;;;17.92;87.04
69713;BME280;56980;51.826;4.424;2022-10-17T08:39:08;101873.88;;;17.87;87.36
69713;BME280;56980;51.826;4.424;2022-10-17T08:41:46;101880.69;;;17.92;87.30
69713;BME280;56980;51.826;4.424;2022-10-17T08:44:20;101900.34;;;17.99;87.07
69713;BME280;56980;51.826;4.424;2022-10-17T08:46:51;101912.00;;;17.76;88.10
69713;BME280;56980;51.826;4.424;2022-10-17T08:52:02;101920.50;;;17.87;87.06
69713;BME280;56980;51.826;4.424;2022-10-17T08:54:44;101917.88;;;17.93;87.37
69713;BME280;56980;51.826;4.424;2022-10-17T08:57:16;101916.50;;;17.97;87.75
69713;BME280;56980;51.826;4.424;2022-10-17T08:59:49;101882.41;;;17.80;87.19
69713;BME280;56980;51.826;4.424;2022-10-17T09:02:42;101919.84;;;18.01;87.36
69713;BME280;56980;51.826;4.424;2022-10-17T09:19:10;101863.28;;;17.62;87.30
69713;BME280;56980;51.826;4.424;2022-10-17T09:21:54;101950.44;;;18.18;86.95
69713;BME280;56980;51.826;4.424;2022-10-17T09:24:41;101877.75;;;17.62;87.25
69713;BME280;56980;51.826;4.424;2022-10-17T09:30:48;101908.97;;;17.56;87.81
69713;BME280;56980;51.826;4.424;2022-10-17T09:35:57;101946.75;;;17.70;87.91
69713;BME280;56980;51.826;4.424;2022-10-17T09:38:28;101986.94;;;17.73;89.11
69713;BME280;56980;51.826;4.424;2022-10-17T09:41:00;101943.38;;;17.48;89.28
69713;BME280;56980;51.826;4.424;2022-10-17T09:43:27;101977.34;;;17.77;88.46
69713;BME280;56980;51.826;4.424;2022-10-17T09:46:04;102013.72;;;17.87;88.93
69713;BME280;56980;51.826;4.424;2022-10-17T09:48:55;101965.91;;;17.52;88.61
69713;BME280;56980;51.826;4.424;2022-10-17T09:51:32;101942.47;;;17.23;88.96
69713;BME280;56980;51.826;4.424;2022-10-17T09:54:03;101989.66;;;17.46;89.31
69713;BME280;56980;51.826;4.424;2022-10-17T09:57:04;101980.41;;;17.61;88.87
69713;BME280;56980;51.826;4.424;2022-10-17T10:02:18;102046.31;;;17.85;88.80
69713;BME280;56980;51.826;4.424;2022-10-17T10:07:17;102003.09;;;17.62;88.88
69713;BME280;56980;51.826;4.424;2022-10-17T10:09:47;102049.50;;;17.93;88.68
69713;BME280;56980;51.826;4.424;2022-10-17T10:12:34;102021.22;;;17.77;88.37
69713;BME280;56980;51.826;4.424;2022-10-17T10:15:00;102038.72;;;17.71;88.69
69713;BME280;56980;51.826;4.424;2022-10-17T10:17:38;102060.03;;;18.03;87.86
69713;BME280;56980;51.826;4.424;2022-10-17T10:20:26;102078.31;;;17.61;89.81
69713;BME280;56980;51.826;4.424;2022-10-17T10:23:13;102075.22;;;17.59;90.13
69713;BME280;56980;51.826;4.424;2022-10-17T10:25:55;102002.44;;;17.21;89.29
69713;BME280;56980;51.826;4.424;2022-10-17T10:28:32;102084.25;;;17.68;88.98
69713;BME280;56980;51.826;4.424;2022-10-17T10:31:04;102014.25;;;17.00;89.32
69713;BME280;56980;51.826;4.424;2022-10-17T10:33:33;102050.06;;;17.33;88.95
69713;BME280;56980;51.826;4.424;2022-10-17T10:36:03;102060.28;;;17.32;88.58
69713;BME280;56980;51.826;4.424;2022-10-17T10:38:30;102064.53;;;17.33;89.19
69713;BME280;56980;51.826;4.424;2022-10-17T10:41:04;102101.53;;;17.29;89.64
69713;BME280;56980;51.826;4.424;2022-10-17T10:43:44;102065.47;;;17.30;88.43
69713;BME280;56980;51.826;4.424;2022-10-17T10:46:23;102103.84;;;17.49;88.82
69713;BME280;56980;51.826;4.424;2022-10-17T10:48:56;102060.59;;;17.34;87.90
69713;BME280;56980;51.826;4.424;2022-10-17T10:51:45;102089.06;;;17.37;88.48
69713;BME280;56980;51.826;4.424;2022-10-17T10:54:26;102027.41;;;17.23;87.38
69713;BME280;56980;51.826;4.424;2022-10-17T10:57:17;102037.72;;;17.19;87.46
69713;BME280;56980;51.826;4.424;2022-10-17T11:00:22;102116.09;;;17.75;86.98
69713;BME280;56980;51.826;4.424;2022-10-17T11:05:35;102113.69;;;17.77;86.55
69713;BME280;56980;51.826;4.424;2022-10-17T11:10:45;102115.16;;;17.78;86.12
69713;BME280;56980;51.826;4.424;2022-10-17T11:13:23;102129.50;;;17.82;86.37
69713;BME280;56980;51.826;4.424;2022-10-17T11:18:51;102106.34;;;17.74;86.32
69713;BME280;56980;51.826;4.424;2022-10-17T17:31:54;102481.22;;;18.57;74.32
69713;BME280;56980;51.826;4.424;2022-10-17T17:34:20;102492.38;;;18.63;74.43
69713;BME280;56980;51.826;4.424;2022-10-17T17:36:45;102487.16;;;18.55;74.42
69713;BME280;56980;51.826;4.424;2022-10-17T17:39:12;102477.53;;;18.51;74.25
69713;BME280;56980;51.826;4.424;2022-10-17T17:41:39;102501.00;;;18.52;74.48
69713;BME280;56980;51.826;4.424;2022-10-17T17:44:05;102505.75;;;18.51;74.51
69713;BME280;56980;51.826;4.424;2022-10-17T17:46:31;102509.81;;;18.47;74.72
69713;BME280;56980;51.826;4.424;2022-10-17T17:48:57;102503.06;;;18.39;74.87
69713;BME280;56980;51.826;4.424;2022-10-17T17:51:24;102510.09;;;18.40;74.79
69713;BME280;56980;51.826;4.424;2022-10-17T17:53:51;102510.09;;;18.40;74.67
69713;BME280;56980;51.826;4.424;2022-10-17T17:56:19;102506.22;;;18.28;74.83
69713;BME280;56980;51.826;4.424;2022-10-17T17:58:46;102524.41;;;18.35;75.33
69713;BME280;56980;51.826;4.424;2022-10-17T18:01:14;102515.84;;;18.33;75.61
69713;BME280;56980;51.826;4.424;2022-10-17T18:03:43;102522.00;;;18.37;75.31
69713;BME280;56980;51.826;4.424;2022-10-17T18:06:09;102525.53;;;18.46;75.11
69713;BME280;56980;51.826;4.424;2022-10-17T18:08:35;102523.53;;;18.47;74.82
69713;BME280;56980;51.826;4.424;2022-10-17T18:11:00;102522.97;;;18.52;74.74
69713;BME280;56980;51.826;4.424;2022-10-17T18:13:26;102527.81;;;18.48;74.42
69713;BME280;56980;51.826;4.424;2022-10-17T18:15:55;102531.22;;;18.52;74.65
69713;BME280;56980;51.826;4.424;2022-10-17T18:18:23;102524.19;;;18.51;74.32
69713;BME280;56980;51.826;4.424;2022-10-17T18:20:48;102513.16;;;18.42;74.21
69713;BME280;56980;51.826;4.424;2022-10-17T18:23:14;102500.03;;;18.37;74.32
69713;BME280;56980;51.826;4.424;2022-10-17T18:25:39;102507.81;;;18.38;74.27
69713;BME280;56980;51.826;4.424;2022-10-17T18:28:05;102510.84;;;18.40;74.52
69713;BME280;56980;51.826;4.424;2022-10-17T18:30:30;102520.91;;;18.34;74.49
69713;BME280;56980;51.826;4.424;2022-10-17T18:32:55;102526.84;;;18.33;74.71
69713;BME280;56980;51.826;4.424;2022-10-17T18:35:21;102539.22;;;18.37;74.79
69713;BME280;56980;51.826;4.424;2022-10-17T18:37:47;102521.81;;;18.31;74.91
69713;BME280;56980;51.826;4.424;2022-10-17T18:40:14;102526.34;;;18.25;74.85
69713;BME280;56980;51.826;4.424;2022-10-17T18:42:41;102527.75;;;18.30;74.92
69713;BME280;56980;51.826;4.424;2022-10-17T18:45:07;102538.41;;;18.28;75.17
69713;BME280;56980;51.826;4.424;2022-10-17T18:47:33;102521.25;;;18.14;75.05
69713;BME280;56980;51.826;4.424;2022-10-17T18:49:58;102532.72;;;18.22;75.30
69713;BME280;56980;51.826;4.424;2022-10-17T18:52:23;102530.44;;;18.20;75.15
69713;BME280;56980;51.826;4.424;2022-10-17T18:54:49;102505.63;;;18.02;75.30
69713;BME280;56980;51.826;4.424;2022-10-17T18:57:15;102506.22;;;17.97;75.42
69713;BME280;56980;51.826;4.424;2022-10-17T18:59:40;102529.94;;;18.13;75.24
69713;BME280;56980;51.826;4.424;2022-10-17T19:02:08;102548.84;;;18.11;75.54
69713;BME280;56980;51.826;4.424;2022-10-17T19:04:34;102531.69;;;17.98;75.71
69713;BME280;56980;51.826;4.424;2022-10-17T19:06:59;102521.41;;;17.89;75.79
69713;BME280;56980;51.826;4.424;2022-10-17T19:09:24;102542.94;;;18.00;76.20
69713;BME280;56980;51.826;4.424;2022-10-17T19:11:50;102545.50;;;17.94;76.03
69713;BME280;56980;51.826;4.424;2022-10-17T19:14:15;102541.22;;;17.93;76.21
69713;BME280;56980;51.826;4.424;2022-10-17T19:16:46;102520.13;;;17.81;76.26
69713;BME280;56980;51.826;4.424;2022-10-17T19:19:15;102543.03;;;17.87;76.13
69713;BME280;56980;51.826;4.424;2022-10-17T19:21:42;102550.38;;;17.90;76.54
69713;BME280;56980;51.826;4.424;2022-10-17T19:24:13;102565.03;;;17.96;76.62
69713;BME280;56980;51.826;4.424;2022-10-17T19:26:40;102547.22;;;17.79;77.02
69713;BME280;56980;51.826;4.424;2022-10-17T19:29:05;102546.00;;;17.80;77.01
69713;BME280;56980;51.826;4.424;2022-10-17T19:31:32;102568.63;;;17.84;77.12
69713;BME280;56980;51.826;4.424;2022-10-17T19:33:59;102553.81;;;17.81;77.81
69713;BME280;56980;51.826;4.424;2022-10-17T19:36:26;102558.53;;;17.81;77.87
69713;BME280;56980;51.826;4.424;2022-10-17T19:38:53;102560.63;;;17.77;77.98
69713;BME280;56980;51.826;4.424;2022-10-17T19:41:22;102573.88;;;17.78;77.93
69713;BME280;56980;51.826;4.424;2022-10-17T19:43:48;102581.47;;;17.74;78.36
69713;BME280;56980;51.826;4.424;2022-10-17T19:46:17;102573.63;;;17.64;78.51
69713;BME280;56980;51.826;4.424;2022-10-17T19:48:43;102574.44;;;17.73;78.44
69713;BME280;56980;51.826;4.424;2022-10-17T19:51:13;102575.03;;;17.56;79.29
69713;BME280;56980;51.826;4.424;2022-10-17T19:53:40;102576.38;;;17.64;78.83
69713;BME280;56980;51.826;4.424;2022-10-17T19:56:06;102541.31;;;17.33;79.21
69713;BME280;56980;51.826;4.424;2022-10-17T19:58:32;102580.53;;;17.56;79.32
69713;BME280;56980;51.826;4.424;2022-10-17T20:01:00;102555.75;;;17.47;79.28
69713;BME280;56980;51.826;4.424;2022-10-17T20:03:26;102574.38;;;17.52;79.27
69713;BME280;56980;51.826;4.424;2022-10-17T20:05:51;102588.22;;;17.61;79.03
69713;BME280;56980;51.826;4.424;2022-10-17T20:08:17;102584.47;;;17.55;79.24
69713;BME280;56980;51.826;4.424;2022-10-17T20:10:43;102590.81;;;17.52;79.31
69713;BME280;56980;51.826;4.424;2022-10-17T20:13:09;102587.31;;;17.51;79.36
69713;BME280;56980;51.826;4.424;2022-10-17T20:15:35;102590.06;;;17.51;79.55
69713;BME280;56980;51.826;4.424;2022-10-17T20:18:01;102600.00;;;17.58;79.38
69713;BME280;56980;51.826;4.424;2022-10-17T20:20:27;102594.13;;;17.47;79.36
69713;BME280;56980;51.826;4.424;2022-10-17T20:22:52;102606.63;;;17.48;79.94
69713;BME280;56980;51.826;4.424;2022-10-17T20:25:18;102596.66;;;17.41;80.27
69713;BME280;56980;51.826;4.424;2022-10-17T20:27:43;102594.13;;;17.47;79.95
69713;BME280;56980;51.826;4.424;2022-10-17T20:30:09;102601.16;;;17.48;80.00
69713;BME280;56980;51.826;4.424;2022-10-17T20:32:34;102601.38;;;17.40;80.12
69713;BME280;56980;51.826;4.424;2022-10-17T20:35:02;102616.97;;;17.43;80.16
69713;BME280;56980;51.826;4.424;2022-10-17T20:37:27;102608.72;;;17.31;80.08
69713;BME280;56980;51.826;4.424;2022-10-17T20:39:53;102614.53;;;17.33;79.95
69713;BME280;56980;51.826;4.424;2022-10-17T20:42:18;102616.63;;;17.41;80.13
69713;BME280;56980;51.826;4.424;2022-10-17T20:44:45;102611.03;;;17.32;79.83
69713;BME280;56980;51.826;4.424;2022-10-17T20:47:11;102618.94;;;17.30;80.07
69713;BME280;56980;51.826;4.424;2022-10-17T20:49:36;102621.78;;;17.27;80.20
69713;BME280;56980;51.826;4.424;2022-10-17T20:52:01;102619.38;;;17.29;80.06
69713;BME280;56980;51.826;4.424;2022-10-17T20:54:27;102628.38;;;17.29;79.90
69713;BME280;56980;51.826;4.424;2022-10-17T20:56:53;102633.41;;;17.18;80.27
69713;BME280;56980;51.826;4.424;2022-10-17T20:59:19;102637.13;;;17.24;80.09
69713;BME280;56980;51.826;4.424;2022-10-17T21:01:45;102644.81;;;17.29;79.92
69713;BME280;56980;51.826;4.424;2022-10-17T21:04:12;102640.63;;;17.25;79.96
69713;BME280;56980;51.826;4.424;2022-10-17T21:06:37;102648.44;;;17.14;80.46
69713;BME280;56980;51.826;4.424;2022-10-17T21:09:04;102625.19;;;17.06;79.67
69713;BME280;56980;51.826;4.424;2022-10-17T21:11:30;102639.78;;;17.15;79.95
69713;BME280;56980;51.826;4.424;2022-10-17T21:14:00;102647.66;;;17.13;80.02
69713;BME280;56980;51.826;4.424;2022-10-17T21:16:27;102647.56;;;17.17;79.69
69713;BME280;56980;51.826;4.424;2022-10-17T21:18:53;102652.50;;;17.09;79.82
69713;BME280;56980;51.826;4.424;2022-10-17T21:21:22;102664.88;;;17.14;79.94
69713;BME280;56980;51.826;4.424;2022-10-17T21:23:49;102659.50;;;17.10;80.06
69713;BME280;56980;51.826;4.424;2022-10-17T21:26:16;102668.81;;;17.13;79.65
69713;BME280;56980;51.826;4.424;2022-10-17T21:28:43;102662.69;;;16.96;80.94
69713;BME280;56980;51.826;4.424;2022-10-17T21:31:23;102676.47;;;17.05;80.59
69713;BME280;56980;51.826;4.424;2022-10-17T21:33:51;102672.44;;;16.97;80.90
69713;BME280;56980;51.826;4.424;2022-10-17T21:36:18;102681.94;;;17.05;80.69
69713;BME280;56980;51.826;4.424;2022-10-17T21:38:45;102669.44;;;17.04;81.06
69713;BME280;56980;51.826;4.424;2022-10-17T21:41:12;102673.72;;;17.05;81.44
69713;BME280;56980;51.826;4.424;2022-10-17T21:43:38;102685.44;;;16.93;82.23
69713;BME280;56980;51.826;4.424;2022-10-17T21:46:08;102686.56;;;16.95;82.03
69713;BME280;56980;51.826;4.424;2022-10-17T21:48:34;102681.84;;;16.96;82.32
69713;BME280;56980;51.826;4.424;2022-10-17T21:51:03;102682.91;;;16.86;82.54
69713;BME280;56980;51.826;4.424;2022-10-17T21:53:29;102685.66;;;16.98;82.30
69713;BME280;56980;51.826;4.424;2022-10-17T21:55:58;102682.72;;;16.93;82.50
69713;BME280;56980;51.826;4.424;2022-10-17T21:58:25;102663.63;;;16.77;82.97
69713;BME280;56980;51.826;4.424;2022-10-17T22:00:50;102656.50;;;16.79;82.63
69713;BME280;56980;51.826;4.424;2022-10-17T22:03:15;102690.38;;;16.98;82.17
69713;BME280;56980;51.826;4.424;2022-10-17T22:05:41;102676.09;;;16.78;83.21
69713;BME280;56980;51.826;4.424;2022-10-17T22:08:07;102681.16;;;16.92;82.21
69713;BME280;56980;51.826;4.424;2022-10-17T22:10:35;102682.94;;;16.98;81.91
69713;BME280;56980;51.826;4.424;2022-10-17T22:13:01;102678.78;;;16.94;82.01